Time;durP1;ratioP1;P1;durP2;ratioP2;P2;SDS_P1;SDS_P2;PMS_P1;PMS_P2;Temp;Humidity;BMP_temperature;BMP_pressure;BME280_temperature;BME280_humidity;BME280_pressure;Samples;Min_cycle;Max_cycle;Signal;HPM_P1;HPM_P2
2021/11/29 00:00:52;;;;;;;2.88;1.00;;;21.40;52.30;;;;;;4945902;29;20513;-41
2021/11/29 00:03:18;;;;;;;1.48;1.10;;;21.40;52.30;;;;;;4946007;29;20684;-40
2021/11/29 00:05:45;;;;;;;1.42;1.00;;;21.50;52.30;;;;;;4946095;29;20042;-40
2021/11/29 00:08:11;;;;;;;1.17;0.98;;;21.50;52.20;;;;;;4945946;29;20035;-39
2021/11/29 00:10:37;;;;;;;1.38;1.00;;;21.60;52.10;;;;;;4945752;29;20074;-40
2021/11/29 00:13:03;;;;;;;0.90;0.80;;;21.70;52.20;;;;;;4945719;29;20876;-40
2021/11/29 00:15:30;;;;;;;1.00;0.90;;;21.80;52.10;;;;;;4946108;29;20060;-39
2021/11/29 00:17:56;;;;;;;2.20;0.98;;;21.70;51.90;;;;;;4945744;29;20032;-39
2021/11/29 00:20:22;;;;;;;2.63;1.02;;;21.70;51.90;;;;;;4945674;29;20158;-40
2021/11/29 00:22:48;;;;;;;1.40;1.10;;;21.70;51.70;;;;;;4945576;29;20079;-40
2021/11/29 00:25:14;;;;;;;1.10;0.90;;;21.70;51.60;;;;;;4945459;29;20032;-41
2021/11/29 00:27:40;;;;;;;1.48;0.88;;;21.80;51.70;;;;;;4926525;29;20100;-40
2021/11/29 00:30:08;;;;;;;1.80;1.00;;;21.80;51.70;;;;;;4944160;29;20100;-41
2021/11/29 00:32:34;;;;;;;1.08;0.98;;;21.90;51.60;;;;;;4945043;29;20503;-41
2021/11/29 00:35:00;;;;;;;1.27;1.00;;;22.00;51.50;;;;;;4945547;29;20103;-40
2021/11/29 00:37:26;;;;;;;1.63;0.95;;;21.90;51.40;;;;;;4944910;29;20027;-40
2021/11/29 00:39:52;;;;;;;1.42;0.88;;;21.90;51.30;;;;;;4945332;29;20037;-41
2021/11/29 00:42:18;;;;;;;1.42;0.98;;;21.90;51.20;;;;;;4944914;29;20074;-40
2021/11/29 00:44:45;;;;;;;1.52;1.20;;;21.90;51.20;;;;;;4945107;29;20024;-41
2021/11/29 00:47:11;;;;;;;1.17;1.00;;;21.90;51.30;;;;;;4945373;29;20030;-42
2021/11/29 00:49:37;;;;;;;1.38;1.10;;;21.90;51.20;;;;;;4945463;29;20023;-40
2021/11/29 00:52:03;;;;;;;2.53;1.17;;;22.00;51.20;;;;;;4945017;29;20032;-40
2021/11/29 00:54:30;;;;;;;1.67;1.20;;;22.00;51.10;;;;;;4945124;29;20445;-40
2021/11/29 00:56:56;;;;;;;1.40;0.90;;;22.00;51.10;;;;;;4944517;29;20455;-40
2021/11/29 00:59:22;;;;;;;1.33;1.10;;;22.00;51.00;;;;;;4945313;29;20047;-39
2021/11/29 01:01:49;;;;;;;1.55;1.05;;;22.00;50.90;;;;;;4944928;29;20035;-40
2021/11/29 01:04:15;;;;;;;2.95;1.05;;;21.90;50.80;;;;;;4945160;29;20036;-42
2021/11/29 01:06:41;;;;;;;1.33;1.10;;;22.00;51.00;;;;;;4944938;29;20040;-40
2021/11/29 01:09:07;;;;;;;1.30;1.10;;;22.00;51.00;;;;;;4944689;29;20063;-39
2021/11/29 01:11:33;;;;;;;1.88;1.00;;;22.10;50.90;;;;;;4944891;29;20032;-39
2021/11/29 01:13:59;;;;;;;1.20;0.90;;;22.10;50.90;;;;;;4944636;29;20024;-40
2021/11/29 01:16:25;;;;;;;1.73;1.25;;;22.10;50.90;;;;;;4945047;29;20095;-40
2021/11/29 01:18:51;;;;;;;1.27;0.98;;;22.00;50.70;;;;;;4944550;29;20587;-40
2021/11/29 01:21:18;;;;;;;1.88;1.15;;;21.90;50.70;;;;;;4944142;29;20166;-39
2021/11/29 01:23:44;;;;;;;1.42;1.02;;;21.90;50.70;;;;;;4944607;29;20031;-40
2021/11/29 01:26:11;;;;;;;2.25;1.30;;;22.00;50.80;;;;;;4944225;29;20050;-40
2021/11/29 01:28:38;;;;;;;1.30;0.85;;;22.00;50.80;;;;;;4945009;29;20043;-40
2021/11/29 01:31:04;;;;;;;1.50;1.08;;;22.10;50.80;;;;;;4944969;29;20032;-41
2021/11/29 01:33:31;;;;;;;2.28;1.10;;;22.10;50.80;;;;;;4944311;29;20102;-40
2021/11/29 01:35:57;;;;;;;1.13;0.80;;;22.10;50.60;;;;;;4944110;29;20019;-40
2021/11/29 01:38:23;;;;;;;1.10;0.85;;;22.00;50.60;;;;;;4942371;29;20044;-40
2021/11/29 01:40:49;;;;;;;1.13;1.00;;;22.00;50.60;;;;;;4944395;29;20040;-39
2021/11/29 01:43:17;;;;;;;2.25;0.95;;;22.00;50.80;;;;;;4944284;29;20625;-40
2021/11/29 01:45:50;;;;;;;1.20;0.93;;;22.00;50.80;;;;;;4944252;29;20512;-41
2021/11/29 01:48:16;;;;;;;1.23;0.90;;;22.10;50.80;;;;;;4944544;29;20032;-40
2021/11/29 01:50:44;;;;;;;1.25;0.98;;;22.10;50.80;;;;;;4943975;29;20023;-41
2021/11/29 01:53:11;;;;;;;2.50;0.95;;;22.10;50.70;;;;;;4944533;29;20063;-40
2021/11/29 01:55:38;;;;;;;1.80;0.90;;;22.00;50.60;;;;;;4943547;29;20055;-39
2021/11/29 01:58:04;;;;;;;;;;;22.00;50.60;;;;;;4945091;29;20119;-40
2021/11/29 02:00:33;;;;;;;1.60;1.05;;;21.90;50.60;;;;;;4944498;29;19913;-41
2021/11/29 02:02:59;;;;;;;1.50;1.00;;;22.00;50.80;;;;;;4944648;29;20148;-41
2021/11/29 02:05:26;;;;;;;2.70;1.10;;;22.00;50.70;;;;;;4943317;29;20047;-40
2021/11/29 02:07:52;;;;;;;1.50;1.20;;;22.10;50.70;;;;;;4925453;29;20043;-41
2021/11/29 02:10:20;;;;;;;1.70;1.10;;;22.10;50.70;;;;;;4929586;29;20115;-40
2021/11/29 02:12:46;;;;;;;1.75;1.02;;;22.00;50.60;;;;;;4926085;29;20036;-41
2021/11/29 02:15:12;;;;;;;3.78;1.40;;;22.00;50.60;;;;;;4944319;29;20071;-40
2021/11/29 02:17:39;;;;;;;1.87;1.00;;;21.90;50.60;;;;;;4944443;29;20038;-42
2021/11/29 02:20:05;;;;;;;1.08;0.90;;;21.90;50.80;;;;;;4945100;28;20087;-40
2021/11/29 02:22:32;;;;;;;1.27;1.13;;;22.00;50.80;;;;;;4962670;29;20054;-40
2021/11/29 02:24:58;;;;;;;1.65;1.08;;;22.00;50.60;;;;;;4947473;28;20095;-42
2021/11/29 02:27:24;;;;;;;1.17;0.82;;;22.00;50.60;;;;;;4950156;29;20684;-40
2021/11/29 02:29:54;;;;;;;1.60;0.90;;;22.00;50.50;;;;;;4948252;29;20030;-40
2021/11/29 02:32:21;;;;;;;1.42;1.00;;;21.90;50.50;;;;;;4939680;29;20028;-41
2021/11/29 02:34:47;;;;;;;1.42;1.10;;;21.80;50.60;;;;;;4937965;29;20036;-40
2021/11/29 02:37:13;;;;;;;1.55;1.05;;;21.90;50.80;;;;;;4946991;29;20051;-41
2021/11/29 02:39:41;;;;;;;1.63;1.00;;;22.00;50.70;;;;;;4931704;29;20031;-40
2021/11/29 02:42:09;;;;;;;1.30;1.08;;;22.00;50.60;;;;;;4946339;29;20862;-40
2021/11/29 02:44:35;;;;;;;1.90;1.17;;;22.00;50.60;;;;;;4940432;29;20035;-41
2021/11/29 02:47:01;;;;;;;1.05;0.80;;;22.00;50.50;;;;;;4940567;29;20059;-39
2021/11/29 02:49:27;;;;;;;1.52;1.10;;;21.90;50.50;;;;;;4938975;29;20032;-39
2021/11/29 02:51:58;;;;;;;1.52;1.00;;;21.80;50.60;;;;;;4946653;29;20035;-39
2021/11/29 02:54:30;;;;;;;1.65;1.30;;;21.80;50.70;;;;;;4946431;29;20035;-39
2021/11/29 02:56:59;;;;;;;1.58;1.13;;;21.90;50.70;;;;;;4946304;29;20040;-40
2021/11/29 02:59:27;;;;;;;1.52;1.25;;;22.00;50.60;;;;;;4946552;29;20032;-41
2021/11/29 03:01:55;;;;;;;1.60;1.15;;;22.00;50.60;;;;;;4947229;29;20483;-39
2021/11/29 03:04:22;;;;;;;1.63;1.27;;;22.00;50.40;;;;;;4946663;29;20055;-40
2021/11/29 03:06:49;;;;;;;1.10;1.00;;;21.90;50.50;;;;;;4947032;29;20583;-41
2021/11/29 03:09:15;;;;;;;1.27;1.00;;;21.80;50.60;;;;;;4945467;29;20091;-39
2021/11/29 03:11:41;;;;;;;1.70;1.08;;;21.80;50.70;;;;;;4946229;29;20036;-39
2021/11/29 03:14:07;;;;;;;1.95;1.20;;;21.90;50.60;;;;;;4946338;29;20031;-41
2021/11/29 03:16:34;;;;;;;1.75;1.40;;;21.90;51.10;;;;;;4945638;29;20043;-39
2021/11/29 03:19:00;;;;;;;3.35;1.00;;;22.00;50.60;;;;;;4940622;29;20024;-40
2021/11/29 03:21:26;;;;;;;1.73;1.27;;;21.90;50.40;;;;;;4942435;29;20083;-40
2021/11/29 03:23:55;;;;;;;1.60;1.07;;;21.90;50.40;;;;;;4946703;29;20043;-40
2021/11/29 03:26:21;;;;;;;2.83;1.20;;;21.80;50.80;;;;;;4942770;29;20290;-42
2021/11/29 03:28:49;;;;;;;2.53;1.17;;;21.70;50.50;;;;;;4946082;29;20035;-39
2021/11/29 03:31:16;;;;;;;2.65;1.40;;;21.80;50.70;;;;;;4944963;29;20076;-39
2021/11/29 03:33:43;;;;;;;1.33;1.07;;;21.80;50.60;;;;;;4930771;29;20024;-40
2021/11/29 03:36:09;;;;;;;1.90;1.20;;;21.90;50.50;;;;;;4945879;29;20032;-42
2021/11/29 03:38:35;;;;;;;1.60;1.02;;;21.90;50.50;;;;;;4946486;29;20041;-39
2021/11/29 03:41:02;;;;;;;2.42;1.45;;;21.90;50.40;;;;;;4946009;29;20071;-40
2021/11/29 03:43:28;;;;;;;1.42;1.08;;;21.80;50.40;;;;;;4940580;29;20036;-40
2021/11/29 03:45:54;;;;;;;1.80;1.17;;;21.70;50.40;;;;;;4941445;29;20028;-39
2021/11/29 03:48:20;;;;;;;2.17;1.30;;;21.80;50.60;;;;;;4935160;29;20051;-40
2021/11/29 03:50:47;;;;;;;1.15;1.00;;;21.80;50.50;;;;;;4928917;29;20392;-40
2021/11/29 03:53:13;;;;;;;2.08;1.10;;;21.90;50.50;;;;;;4945777;29;20051;-42
2021/11/29 03:55:39;;;;;;;2.10;1.25;;;21.90;50.50;;;;;;4939245;29;20026;-42
2021/11/29 03:58:05;;;;;;;2.22;1.30;;;21.90;50.30;;;;;;4945534;29;20021;-40
2021/11/29 04:00:31;;;;;;;1.45;1.10;;;21.80;50.30;;;;;;4944624;29;20099;-40
2021/11/29 04:02:58;;;;;;;1.83;1.17;;;21.70;50.40;;;;;;4946038;29;20039;-40
2021/11/29 04:05:24;;;;;;;2.30;1.27;;;21.70;50.60;;;;;;4929806;29;20405;-40
2021/11/29 04:07:50;;;;;;;1.05;0.95;;;21.80;50.60;;;;;;4931309;29;20031;-39
2021/11/29 04:10:16;;;;;;;1.63;1.05;;;21.90;50.50;;;;;;4934090;29;20030;-41
2021/11/29 04:12:42;;;;;;;2.53;1.17;;;21.90;50.50;;;;;;4945525;29;20100;-40
2021/11/29 04:15:09;;;;;;;1.73;1.20;;;21.90;50.40;;;;;;4945253;29;20031;-40
2021/11/29 04:17:35;;;;;;;1.45;1.17;;;21.80;50.30;;;;;;4929628;29;20040;-39
2021/11/29 04:20:02;;;;;;;1.35;1.08;;;21.70;50.40;;;;;;4939836;29;20078;-39
2021/11/29 04:22:29;;;;;;;1.30;1.20;;;21.70;50.60;;;;;;4942366;29;20051;-41
2021/11/29 04:24:58;;;;;;;1.20;0.90;;;21.80;50.50;;;;;;4944115;29;20622;-39
2021/11/29 04:27:24;;;;;;;1.50;1.10;;;21.90;50.50;;;;;;4943977;29;20126;-40
2021/11/29 04:29:51;;;;;;;1.70;1.00;;;21.90;50.40;;;;;;4944838;29;20092;-40
2021/11/29 04:32:19;;;;;;;1.85;1.10;;;21.80;50.20;;;;;;4942265;29;20066;-40
2021/11/29 04:34:45;;;;;;;1.35;1.00;;;21.80;50.30;;;;;;4944371;29;20039;-39
2021/11/29 04:37:11;;;;;;;1.60;1.15;;;21.70;50.40;;;;;;4944746;29;20039;-41
2021/11/29 04:39:37;;;;;;;1.75;1.10;;;21.80;50.50;;;;;;4944788;29;20042;-39
2021/11/29 04:42:04;;;;;;;1.20;0.90;;;21.80;50.30;;;;;;4944652;29;20114;-40
2021/11/29 04:44:30;;;;;;;1.63;0.93;;;21.90;50.30;;;;;;4935594;29;20113;-41
2021/11/29 04:46:56;;;;;;;1.40;0.90;;;21.90;50.30;;;;;;4938090;29;20067;-40
2021/11/29 04:49:22;;;;;;;1.27;0.90;;;21.80;50.10;;;;;;4944650;29;20031;-40
2021/11/29 04:51:48;;;;;;;1.40;0.95;;;21.80;50.20;;;;;;4934321;29;20051;-41
2021/11/29 04:54:15;;;;;;;1.25;0.93;;;21.70;50.20;;;;;;4944661;29;20052;-42
2021/11/29 04:56:41;;;;;;;0.80;0.60;;;21.70;50.40;;;;;;4943515;29;20035;-40
2021/11/29 04:59:07;;;;;;;0.88;0.60;;;21.80;50.30;;;;;;4944616;29;20052;-40
2021/11/29 05:01:34;;;;;;;1.10;0.70;;;21.80;50.20;;;;;;4936476;29;20054;-41
2021/11/29 05:04:00;;;;;;;1.87;0.80;;;21.90;50.20;;;;;;4944619;29;20028;-40
2021/11/29 05:06:26;;;;;;;1.17;0.70;;;21.90;50.10;;;;;;4944910;29;20096;-41
2021/11/29 05:08:52;;;;;;;0.75;0.70;;;21.80;50.10;;;;;;4944449;29;20027;-40
2021/11/29 05:11:18;;;;;;;0.82;0.60;;;21.70;50.20;;;;;;4943972;29;20795;-40
2021/11/29 05:13:45;;;;;;;0.90;0.75;;;21.80;50.20;;;;;;4944189;29;20067;-42
2021/11/29 05:16:12;;;;;;;0.70;0.70;;;21.80;50.10;;;;;;4941055;29;20059;-40
2021/11/29 05:18:38;;;;;;;0.80;0.68;;;21.90;50.10;;;;;;4944359;29;20117;-40
2021/11/29 05:21:04;;;;;;;0.82;0.55;;;21.90;50.00;;;;;;4927492;29;20056;-40
2021/11/29 05:23:31;;;;;;;0.70;0.40;;;21.80;49.80;;;;;;4944130;29;20043;-40
2021/11/29 05:25:57;;;;;;;2.28;0.70;;;21.80;50.00;;;;;;4943170;29;20031;-40
2021/11/29 05:28:24;;;;;;;0.80;0.50;;;21.70;50.10;;;;;;4936548;29;20117;-40
2021/11/29 05:30:50;;;;;;;0.68;0.50;;;21.70;50.10;;;;;;4942072;29;20086;-41
2021/11/29 05:33:16;;;;;;;1.20;0.70;;;21.80;50.00;;;;;;4930622;29;20048;-40
2021/11/29 05:35:42;;;;;;;1.67;0.75;;;21.90;50.00;;;;;;4937406;29;20643;-40
2021/11/29 05:38:08;;;;;;;0.70;0.50;;;21.90;50.00;;;;;;4944484;29;20043;-40
2021/11/29 05:40:34;;;;;;;0.52;0.40;;;21.80;49.80;;;;;;4934731;29;20024;-40
2021/11/29 05:43:00;;;;;;;1.17;0.47;;;21.80;49.90;;;;;;4937752;29;20031;-41
2021/11/29 05:45:26;;;;;;;1.02;0.70;;;21.70;50.00;;;;;;4944163;29;20027;-40
2021/11/29 05:47:52;;;;;;;0.60;0.43;;;21.80;50.00;;;;;;4944171;29;20771;-41
2021/11/29 05:50:19;;;;;;;1.23;0.52;;;21.80;50.00;;;;;;4937040;29;20032;-41
2021/11/29 05:52:45;;;;;;;0.40;0.32;;;21.90;50.00;;;;;;4944200;29;20163;-40
2021/11/29 05:55:13;;;;;;;0.50;0.50;;;21.90;50.00;;;;;;4946146;29;20073;-43
2021/11/29 05:57:39;;;;;;;1.13;0.57;;;21.80;49.80;;;;;;4946571;29;20027;-40
2021/11/29 06:00:07;;;;;;;1.40;0.50;;;21.80;49.90;;;;;;4948139;29;20043;-40
2021/11/29 06:02:33;;;;;;;1.15;0.70;;;21.70;50.00;;;;;;4938302;29;20048;-40
2021/11/29 06:04:59;;;;;;;0.68;0.43;;;21.70;50.00;;;;;;4941879;29;20032;-40
2021/11/29 06:07:25;;;;;;;1.10;0.65;;;21.80;50.00;;;;;;4947964;29;20035;-42
2021/11/29 06:09:51;;;;;;;0.45;0.45;;;21.90;50.00;;;;;;4947006;29;20027;-41
2021/11/29 06:12:18;;;;;;;0.55;0.47;;;21.90;49.90;;;;;;4945687;29;20157;-40
2021/11/29 06:14:44;;;;;;;1.15;0.60;;;21.80;49.80;;;;;;4947803;29;20042;-39
2021/11/29 06:17:10;;;;;;;0.45;0.40;;;21.70;49.80;;;;;;4937038;29;20031;-40
2021/11/29 06:19:36;;;;;;;0.52;0.40;;;21.70;50.00;;;;;;4936726;29;20042;-40
2021/11/29 06:22:03;;;;;;;0.57;0.40;;;21.70;50.00;;;;;;4935514;29;20048;-40
2021/11/29 06:24:29;;;;;;;0.70;0.50;;;21.80;49.90;;;;;;4946702;29;20026;-42
2021/11/29 06:26:55;;;;;;;0.82;0.40;;;21.90;50.00;;;;;;4946282;29;20040;-40
2021/11/29 06:29:21;;;;;;;0.75;0.40;;;21.90;49.90;;;;;;4947132;29;20560;-40
2021/11/29 06:31:47;;;;;;;0.68;0.50;;;21.90;49.80;;;;;;4933828;29;20035;-40
2021/11/29 06:34:14;;;;;;;1.15;0.47;;;21.80;49.80;;;;;;4947297;28;20059;-40
2021/11/29 06:36:40;;;;;;;0.52;0.45;;;21.70;49.90;;;;;;4947061;29;20019;-40
2021/11/29 06:39:06;;;;;;;0.35;0.30;;;21.80;50.00;;;;;;4934831;29;20103;-40
2021/11/29 06:41:32;;;;;;;1.48;0.50;;;21.80;49.90;;;;;;4943796;29;20582;-40
2021/11/29 06:43:58;;;;;;;0.50;0.32;;;21.90;49.80;;;;;;4940755;29;20067;-43
2021/11/29 06:46:24;;;;;;;1.10;0.50;;;21.90;49.80;;;;;;4946957;29;20481;-40
2021/11/29 06:48:50;;;;;;;0.40;0.30;;;21.90;49.70;;;;;;4943454;29;20032;-41
2021/11/29 06:51:17;;;;;;;0.32;0.30;;;21.80;49.70;;;;;;4942804;29;20031;-40
2021/11/29 06:53:43;;;;;;;0.57;0.38;;;21.80;49.90;;;;;;4943667;29;20099;-40
2021/11/29 06:56:10;;;;;;;1.20;0.50;;;21.80;49.90;;;;;;4941181;29;20789;-40
2021/11/29 06:58:36;;;;;;;0.82;0.55;;;21.90;49.90;;;;;;4946726;29;20048;-40
2021/11/29 07:01:04;;;;;;;0.60;0.40;;;21.90;49.90;;;;;;4942187;29;20062;-40
2021/11/29 07:03:30;;;;;;;0.65;0.50;;;21.90;49.80;;;;;;4946620;29;20032;-40
2021/11/29 07:05:56;;;;;;;1.77;0.32;;;21.80;49.70;;;;;;4946194;29;20034;-40
2021/11/29 07:08:23;;;;;;;0.50;0.40;;;21.80;49.80;;;;;;4946915;29;20039;-40
2021/11/29 07:10:50;;;;;;;0.82;0.50;;;21.70;49.90;;;;;;4941647;29;20028;-40
2021/11/29 07:13:16;;;;;;;0.65;0.40;;;21.80;49.90;;;;;;4929559;29;20032;-42
2021/11/29 07:15:43;;;;;;;0.60;0.50;;;21.90;49.90;;;;;;4940128;29;20030;-40
2021/11/29 07:18:09;;;;;;;0.20;0.20;;;21.90;49.90;;;;;;4929673;29;20031;-40
2021/11/29 07:20:35;;;;;;;0.38;0.38;;;21.90;49.80;;;;;;4944889;29;20048;-40
2021/11/29 07:23:02;;;;;;;0.43;0.40;;;21.80;49.70;;;;;;4946605;29;20042;-40
2021/11/29 07:25:28;;;;;;;0.30;0.30;;;21.70;49.80;;;;;;4944027;29;20028;-40
2021/11/29 07:27:54;;;;;;;0.65;0.50;;;21.70;49.90;;;;;;4946090;29;20032;-40
2021/11/29 07:30:22;;;;;;;0.57;0.45;;;21.80;49.90;;;;;;4943124;29;20027;-40
2021/11/29 07:32:49;;;;;;;0.68;0.40;;;21.90;50.00;;;;;;4934814;29;20028;-41
2021/11/29 07:35:15;;;;;;;0.50;0.40;;;21.90;49.80;;;;;;4942604;29;20029;-40
2021/11/29 07:37:42;;;;;;;0.52;0.30;;;21.90;49.80;;;;;;4944506;29;20809;-40
2021/11/29 07:40:08;;;;;;;0.50;0.40;;;21.80;49.70;;;;;;4940191;29;20103;-43
2021/11/29 07:42:35;;;;;;;0.53;0.30;;;21.80;49.80;;;;;;4941454;29;20032;-39
2021/11/29 07:45:01;;;;;;;0.60;0.30;;;21.80;49.90;;;;;;4946568;29;20163;-43
2021/11/29 07:47:27;;;;;;;0.40;0.30;;;21.80;49.80;;;;;;4930636;29;20036;-40
2021/11/29 07:49:54;;;;;;;0.55;0.40;;;21.90;49.80;;;;;;4938219;29;20740;-40
2021/11/29 07:52:20;;;;;;;0.43;0.30;;;21.90;49.70;;;;;;4945978;29;20103;-40
2021/11/29 07:54:46;;;;;;;0.40;0.32;;;21.90;49.60;;;;;;4945618;29;20100;-40
2021/11/29 07:57:14;;;;;;;0.35;0.35;;;21.80;49.70;;;;;;4945147;29;20040;-41
2021/11/29 07:59:42;;;;;;;0.88;0.50;;;21.70;49.70;;;;;;4930415;29;20024;-40
2021/11/29 08:02:10;;;;;;;0.50;0.30;;;21.80;49.80;;;;;;4939700;29;20052;-40
2021/11/29 08:04:36;;;;;;;0.52;0.30;;;21.90;49.80;;;;;;4936137;29;20027;-42
2021/11/29 08:07:03;;;;;;;0.40;0.30;;;21.90;49.60;;;;;;4945523;29;20039;-41
2021/11/29 08:09:29;;;;;;;0.47;0.40;;;21.90;49.60;;;;;;4944911;28;20481;-40
2021/11/29 08:11:55;;;;;;;0.52;0.47;;;21.90;49.60;;;;;;4931250;29;20035;-40
2021/11/29 08:14:21;;;;;;;0.43;0.38;;;21.80;49.60;;;;;;4943040;29;20031;-42
2021/11/29 08:16:47;;;;;;;1.02;0.40;;;21.70;49.70;;;;;;4945831;29;20032;-40
2021/11/29 08:19:13;;;;;;;0.45;0.30;;;21.80;49.80;;;;;;4930955;29;20508;-41
2021/11/29 08:21:39;;;;;;;0.50;0.40;;;21.80;49.70;;;;;;4943062;29;20139;-41
2021/11/29 08:24:05;;;;;;;0.40;0.35;;;21.90;49.60;;;;;;4943705;29;20030;-41
2021/11/29 08:26:32;;;;;;;0.82;0.30;;;21.90;49.60;;;;;;4944080;29;20039;-40
2021/11/29 08:28:58;;;;;;;0.30;0.30;;;21.90;49.40;;;;;;4943607;29;20032;-40
2021/11/29 08:31:24;;;;;;;0.30;0.30;;;21.80;49.50;;;;;;4944406;29;20027;-40
2021/11/29 08:33:50;;;;;;;0.60;0.38;;;21.70;49.60;;;;;;4945395;29;20035;-40
2021/11/29 08:36:16;;;;;;;0.63;0.43;;;21.70;49.70;;;;;;4944633;29;20034;-40
2021/11/29 08:38:42;;;;;;;0.35;0.30;;;21.80;49.70;;;;;;4944292;29;20035;-40
2021/11/29 08:41:08;;;;;;;0.60;0.50;;;21.90;49.70;;;;;;4943195;29;20043;-40
2021/11/29 08:43:38;;;;;;;0.95;0.50;;;21.90;49.60;;;;;;4944244;29;20032;-40
2021/11/29 08:46:04;;;;;;;0.70;0.40;;;21.90;49.50;;;;;;4938911;29;20050;-40
2021/11/29 08:48:30;;;;;;;0.60;0.30;;;21.90;49.50;;;;;;4935065;29;20123;-40
2021/11/29 08:50:56;;;;;;;0.60;0.38;;;21.80;49.60;;;;;;4936669;29;20055;-40
2021/11/29 08:53:24;;;;;;;1.88;0.40;;;21.70;49.60;;;;;;4945419;29;20032;-41
2021/11/29 08:55:50;;;;;;;0.57;0.50;;;21.70;49.80;;;;;;4944840;29;20071;-44
2021/11/29 08:58:17;;;;;;;0.80;0.50;;;21.80;49.70;;;;;;4943936;29;20042;-41
2021/11/29 09:00:44;;;;;;;0.40;0.40;;;21.90;49.60;;;;;;4943991;29;20047;-40
2021/11/29 09:03:11;;;;;;;0.55;0.40;;;21.90;49.60;;;;;;4943009;29;20524;-40
2021/11/29 09:05:42;;;;;;;0.32;0.32;;;21.90;49.40;;;;;;4943307;29;20095;-40
2021/11/29 09:08:08;;;;;;;1.00;0.60;;;21.80;49.40;;;;;;4943780;29;20066;-41
2021/11/29 09:10:34;;;;;;;0.50;0.40;;;21.70;49.50;;;;;;4935688;29;20055;-41
2021/11/29 09:13:00;;;;;;;0.70;0.50;;;21.70;49.60;;;;;;4942954;29;20032;-40
2021/11/29 09:15:27;;;;;;;0.70;0.50;;;21.80;49.60;;;;;;4940656;29;20035;-40
2021/11/29 09:17:53;;;;;;;0.52;0.30;;;21.90;49.50;;;;;;4930294;29;20036;-40
2021/11/29 09:20:20;;;;;;;0.70;0.40;;;21.90;49.50;;;;;;4941800;29;20139;-40
2021/11/29 09:22:47;;;;;;;0.73;0.45;;;21.90;49.30;;;;;;4942732;29;20044;-40
2021/11/29 09:25:13;;;;;;;0.57;0.50;;;21.80;49.30;;;;;;4942592;29;20031;-40
2021/11/29 09:27:39;;;;;;;0.30;0.30;;;21.70;49.40;;;;;;4942783;29;20031;-40
2021/11/29 09:30:07;;;;;;;0.60;0.57;;;21.70;49.60;;;;;;4949346;29;20589;-40
2021/11/29 09:32:37;;;;;;;0.55;0.40;;;21.80;49.50;;;;;;4949499;29;20027;-40
2021/11/29 09:35:08;;;;;;;0.50;0.40;;;21.90;49.50;;;;;;4950619;29;20028;-40
2021/11/29 09:37:36;;;;;;;0.60;0.50;;;21.90;49.40;;;;;;4937508;29;20038;-41
2021/11/29 09:40:06;;;;;;;0.52;0.40;;;21.90;49.30;;;;;;4945967;29;20073;-41
2021/11/29 09:42:33;;;;;;;0.70;0.50;;;21.80;49.30;;;;;;4941108;29;20047;-42
2021/11/29 09:45:00;;;;;;;1.05;0.40;;;21.70;49.40;;;;;;4934103;29;20485;-41
2021/11/29 09:47:26;;;;;;;0.43;0.40;;;21.70;49.60;;;;;;4935369;29;20051;-40
2021/11/29 09:49:56;;;;;;;0.60;0.35;;;21.80;49.60;;;;;;4949585;29;20031;-40
2021/11/29 09:52:22;;;;;;;0.73;0.50;;;21.90;49.50;;;;;;4950112;29;20043;-42
2021/11/29 09:54:49;;;;;;;0.40;0.30;;;21.90;49.50;;;;;;4939620;29;20088;-40
2021/11/29 09:57:15;;;;;;;0.17;0.17;;;21.90;49.40;;;;;;4933556;29;20444;-40
2021/11/29 09:59:41;;;;;;;0.52;0.30;;;21.80;49.30;;;;;;4946264;29;20028;-40
2021/11/29 10:02:12;;;;;;;0.65;0.40;;;21.80;49.50;;;;;;4934396;29;20569;-40
2021/11/29 10:04:47;;;;;;;0.60;0.40;;;21.70;49.60;;;;;;4942385;29;20039;-40
2021/11/29 10:07:33;;;;;;;1.23;0.40;;;21.80;49.70;;;;;;4943507;29;20041;-43
2021/11/29 10:10:16;;;;;;;0.55;0.40;;;21.80;49.60;;;;;;4924365;29;20101;-41
2021/11/29 10:12:42;;;;;;;0.77;0.40;;;21.90;49.50;;;;;;4937574;29;20459;-42
2021/11/29 10:15:40;;;;;;;0.45;0.30;;;21.90;49.50;;;;;;4946176;29;20404;-40
2021/11/29 10:18:20;;;;;;;0.70;0.43;;;21.90;49.50;;;;;;4935340;29;20086;-40
2021/11/29 10:21:09;;;;;;;0.25;0.25;;;21.80;49.50;;;;;;4946196;29;20071;-40
2021/11/29 10:23:42;;;;;;;0.45;0.38;;;21.70;49.60;;;;;;4945801;29;20032;-40
2021/11/29 10:26:21;;;;;;;0.52;0.35;;;21.80;49.70;;;;;;4949297;29;20035;-40
2021/11/29 10:28:55;;;;;;;1.30;0.40;;;21.90;49.60;;;;;;4943442;29;20027;-40
2021/11/29 10:31:22;;;;;;;0.93;0.35;;;21.90;49.50;;;;;;4942848;28;20043;-40
2021/11/29 10:33:59;;;;;;;0.88;0.30;;;21.90;49.50;;;;;;4949499;29;20035;-39
2021/11/29 10:36:28;;;;;;;0.40;0.40;;;21.80;49.40;;;;;;4942497;29;20034;-39
2021/11/29 10:38:58;;;;;;;0.30;0.30;;;21.80;49.50;;;;;;4943789;29;20676;-40
2021/11/29 10:41:30;;;;;;;0.63;0.30;;;21.70;49.60;;;;;;4945868;29;20054;-40
2021/11/29 10:43:57;;;;;;;0.43;0.40;;;21.70;49.70;;;;;;4942608;29;20123;-40
2021/11/29 10:46:24;;;;;;;0.63;0.40;;;21.80;49.60;;;;;;4936996;29;20031;-40
2021/11/29 10:48:51;;;;;;;0.60;0.43;;;21.90;49.50;;;;;;4943460;29;20096;-40
2021/11/29 10:51:18;;;;;;;0.30;0.30;;;21.90;49.50;;;;;;4933249;29;20047;-40
2021/11/29 10:53:48;;;;;;;;;;;21.90;49.40;;;;;;4947642;29;20090;-40
2021/11/29 10:56:14;;;;;;;0.40;0.35;;;21.80;49.30;;;;;;4946366;29;20332;-39
2021/11/29 10:58:43;;;;;;;0.70;0.38;;;21.70;49.40;;;;;;4937217;29;20032;-41
2021/11/29 11:01:09;;;;;;;0.40;0.40;;;21.70;49.50;;;;;;4933995;29;20059;-39
2021/11/29 11:03:54;;;;;;;0.33;0.30;;;21.80;49.40;;;;;;4944231;29;20040;-39
2021/11/29 11:06:33;;;;;;;0.38;0.30;;;21.90;49.40;;;;;;4946694;29;20055;-40
2021/11/29 11:09:00;;;;;;;0.52;0.40;;;21.90;49.40;;;;;;4938202;29;20768;-40
2021/11/29 11:11:41;;;;;;;0.38;0.30;;;21.90;49.20;;;;;;4929940;29;20095;-39
2021/11/29 11:14:10;;;;;;;0.43;0.30;;;21.80;49.10;;;;;;4925915;29;20036;-39
2021/11/29 11:16:40;;;;;;;0.43;0.30;;;21.70;49.30;;;;;;4937948;29;20098;-41
2021/11/29 11:19:08;;;;;;;0.90;0.32;;;21.70;49.40;;;;;;4936460;29;20023;-39
2021/11/29 11:21:35;;;;;;;1.40;0.45;;;21.80;49.30;;;;;;4945729;29;20099;-40
2021/11/29 11:24:23;;;;;;;0.40;0.35;;;21.90;49.30;;;;;;4945583;29;20152;-39
2021/11/29 11:26:50;;;;;;;1.48;0.32;;;21.90;49.20;;;;;;4945411;29;20036;-39
2021/11/29 11:29:36;;;;;;;0.30;0.30;;;21.90;49.10;;;;;;4935200;29;20036;-39
2021/11/29 11:32:13;;;;;;;0.52;0.40;;;21.80;49.10;;;;;;4946387;29;20038;-39
2021/11/29 11:34:40;;;;;;;0.47;0.40;;;21.70;49.20;;;;;;4944360;29;20095;-41
2021/11/29 11:37:07;;;;;;;3.05;0.63;;;21.70;49.30;;;;;;4930857;29;20039;-39
2021/11/29 11:39:33;;;;;;;0.40;0.40;;;21.80;49.20;;;;;;4931078;29;20802;-41
2021/11/29 11:41:59;;;;;;;0.40;0.40;;;21.90;49.20;;;;;;4941644;29;20056;-39
2021/11/29 11:44:25;;;;;;;0.77;0.47;;;21.90;49.20;;;;;;4935188;29;20325;-41
2021/11/29 11:46:52;;;;;;;0.65;0.50;;;21.90;49.10;;;;;;4929640;29;20024;-40
2021/11/29 11:49:18;;;;;;;0.40;0.35;;;21.80;49.00;;;;;;4944962;29;20484;-41
2021/11/29 11:51:44;;;;;;;0.63;0.40;;;21.70;49.10;;;;;;4944098;29;20126;-39
2021/11/29 11:54:11;;;;;;;0.60;0.50;;;21.70;49.20;;;;;;4946737;29;20103;-40
2021/11/29 11:56:37;;;;;;;0.40;0.35;;;21.70;49.20;;;;;;4944878;29;20058;-39
2021/11/29 11:59:23;;;;;;;0.88;0.47;;;21.80;49.10;;;;;;4945766;29;20094;-41
2021/11/29 12:01:49;;;;;;;0.40;0.40;;;21.90;49.10;;;;;;4930841;29;20047;-39
2021/11/29 12:04:17;;;;;;;0.68;0.35;;;21.90;49.00;;;;;;4939258;29;20102;-39
2021/11/29 12:06:44;;;;;;;0.52;0.30;;;21.80;48.90;;;;;;4937607;29;20032;-39
2021/11/29 12:09:12;;;;;;;0.50;0.30;;;21.70;48.90;;;;;;4946040;29;20039;-40
2021/11/29 12:11:45;;;;;;;0.90;0.60;;;21.70;49.10;;;;;;4942988;29;20048;-40
2021/11/29 12:14:23;;;;;;;0.80;0.50;;;21.80;49.10;;;;;;4933406;29;20066;-40
2021/11/29 12:17:23;;;;;;;0.60;0.43;;;21.80;49.00;;;;;;4945752;29;20032;-40
2021/11/29 12:19:49;;;;;;;0.50;0.30;;;21.90;48.90;;;;;;4931705;29;20036;-41
2021/11/29 12:22:15;;;;;;;0.65;0.38;;;21.90;48.70;;;;;;4945930;29;20039;-39
2021/11/29 12:24:46;;;;;;;0.40;0.40;;;21.80;48.70;;;;;;4944028;29;20023;-40
2021/11/29 12:27:13;;;;;;;0.43;0.32;;;21.70;48.80;;;;;;4942078;29;20040;-40
2021/11/29 12:29:39;;;;;;;0.68;0.40;;;21.70;48.90;;;;;;4930876;29;20028;-40
2021/11/29 12:32:05;;;;;;;0.33;0.30;;;21.70;48.90;;;;;;4932802;29;20040;-40
2021/11/29 12:34:48;;;;;;;1.02;0.70;;;21.80;48.90;;;;;;4936385;29;20028;-40
2021/11/29 12:37:18;;;;;;;0.90;0.50;;;21.90;48.90;;;;;;4935192;29;20028;-41
2021/11/29 12:39:44;;;;;;;0.73;0.30;;;21.90;48.80;;;;;;4942489;29;20020;-40
2021/11/29 12:42:19;;;;;;;0.38;0.30;;;21.90;48.60;;;;;;4937462;29;20040;-40
2021/11/29 12:44:49;;;;;;;0.22;0.22;;;21.70;48.70;;;;;;4929916;29;20031;-40
2021/11/29 12:47:20;;;;;;;1.00;0.40;;;21.70;48.90;;;;;;4941004;29;20036;-40
2021/11/29 12:49:46;;;;;;;0.35;0.30;;;21.70;49.00;;;;;;4941632;29;20476;-41